createdAt,value
2019-02-02T00:01:43.890Z,25.07
2019-02-02T00:04:13.137Z,21.93
2019-02-02T00:06:42.402Z,22.53
2019-02-02T00:09:11.675Z,22.90
2019-02-02T00:11:41.033Z,18.30
2019-02-02T00:14:10.201Z,19.57
2019-02-02T00:16:39.548Z,20.93
2019-02-02T00:19:08.796Z,21.03
2019-02-02T00:21:38.054Z,20.60
2019-02-02T00:24:07.273Z,20.67
2019-02-02T00:26:36.444Z,21.00
2019-02-02T00:29:05.769Z,24.80
2019-02-02T00:31:35.030Z,19.40
2019-02-02T00:34:05.651Z,19.50
2019-02-02T00:36:34.842Z,20.33
2019-02-02T00:39:06.220Z,22.00
2019-02-02T00:41:35.457Z,18.20
2019-02-02T00:44:04.824Z,28.80
2019-02-02T00:46:34.129Z,23.37
2019-02-02T00:49:03.426Z,28.40
2019-02-02T00:51:32.696Z,19.87
2019-02-02T00:54:01.915Z,18.80
2019-02-02T00:56:31.164Z,20.30
2019-02-02T00:59:00.647Z,20.47
2019-02-02T01:01:29.964Z,21.60
2019-02-02T01:03:59.290Z,29.30
2019-02-02T01:06:28.612Z,32.37
2019-02-02T01:09:00.438Z,23.50
2019-02-02T01:11:29.923Z,26.50
2019-02-02T01:14:06.191Z,24.33
2019-02-02T01:16:40.861Z,33.60
2019-02-02T01:19:15.064Z,34.90
2019-02-02T01:21:50.811Z,36.10
2019-02-02T01:24:25.447Z,34.47
2019-02-02T01:27:02.561Z,32.10
2019-02-02T01:29:38.422Z,35.17
2019-02-02T01:32:14.858Z,32.60
2019-02-02T01:34:53.078Z,34.90
2019-02-02T01:37:27.818Z,32.40
2019-02-02T01:40:03.150Z,29.07
2019-02-02T01:42:38.926Z,29.37
2019-02-02T01:45:17.591Z,32.20
2019-02-02T01:47:49.560Z,25.37
2019-02-02T01:50:22.834Z,30.77
2019-02-02T01:52:54.466Z,22.90
2019-02-02T01:55:23.956Z,26.67
2019-02-02T01:57:53.270Z,21.87
2019-02-02T02:00:28.930Z,20.40
2019-02-02T02:03:01.094Z,19.67
2019-02-02T02:05:38.439Z,31.60
2019-02-02T02:08:12.171Z,32.30
2019-02-02T02:10:43.597Z,32.20
2019-02-02T02:13:18.761Z,34.00
2019-02-02T02:15:50.523Z,33.30
2019-02-02T02:18:22.043Z,34.17
2019-02-02T02:20:57.216Z,33.53
2019-02-02T02:23:36.172Z,32.17
2019-02-02T02:26:18.478Z,28.30
2019-02-02T02:28:51.518Z,22.50
2019-02-02T02:31:20.980Z,23.27
2019-02-02T02:33:50.464Z,22.40
2019-02-02T02:36:19.750Z,23.37
2019-02-02T02:38:52.301Z,30.17
2019-02-02T02:41:21.580Z,21.27
2019-02-02T02:43:50.887Z,22.83
2019-02-02T02:46:20.114Z,23.07
2019-02-02T02:48:49.558Z,23.37
2019-02-02T02:51:18.710Z,19.30
2019-02-02T02:53:47.898Z,21.23
2019-02-02T02:56:17.149Z,21.80
2019-02-02T02:58:46.442Z,20.83
2019-02-02T03:01:15.593Z,19.30
2019-02-02T03:03:44.825Z,20.97
2019-02-02T03:06:14.059Z,18.30
2019-02-02T03:08:43.204Z,21.83
2019-02-02T03:11:12.364Z,19.30
2019-02-02T03:13:41.592Z,24.07
2019-02-02T03:16:10.827Z,25.90
2019-02-02T03:18:40.187Z,24.03
2019-02-02T03:21:09.489Z,15.90
2019-02-02T03:23:38.729Z,15.40
2019-02-02T03:26:07.953Z,21.87
2019-02-02T03:28:37.233Z,27.77
2019-02-02T03:31:06.495Z,19.73
2019-02-02T03:33:35.982Z,23.23
2019-02-02T03:36:07.133Z,23.83
2019-02-02T03:38:37.937Z,22.83
2019-02-02T03:41:12.608Z,19.93
2019-02-02T03:43:52.401Z,18.70
2019-02-02T03:46:24.665Z,18.73
2019-02-02T03:48:55.700Z,26.93
2019-02-02T03:51:27.659Z,24.20
2019-02-02T03:54:13.615Z,18.97
2019-02-02T03:56:52.300Z,17.40
2019-02-02T03:59:25.153Z,17.07
2019-02-02T04:02:01.508Z,15.77
2019-02-02T04:04:37.140Z,19.00
2019-02-02T04:07:14.051Z,17.77
2019-02-02T04:09:54.708Z,18.50
2019-02-02T04:12:30.047Z,25.00
2019-02-02T04:15:02.893Z,20.87
2019-02-02T04:17:38.572Z,30.10
2019-02-02T04:20:14.176Z,29.97
2019-02-02T04:22:45.878Z,29.30
2019-02-02T04:25:19.019Z,33.83
2019-02-02T04:27:52.361Z,23.37
2019-02-02T04:30:28.781Z,29.33
2019-02-02T04:33:03.132Z,26.20
2019-02-02T04:35:38.864Z,34.17
2019-02-02T04:38:10.704Z,20.73
2019-02-02T04:40:44.662Z,24.07
2019-02-02T04:43:15.699Z,28.87
2019-02-02T04:45:46.787Z,26.07
2019-02-02T04:48:17.208Z,22.47
2019-02-02T04:50:51.036Z,23.13
2019-02-02T04:53:22.536Z,16.40
2019-02-02T04:55:53.473Z,19.53
2019-02-02T04:58:23.503Z,25.77
2019-02-02T05:01:15.606Z,23.20
2019-02-02T05:03:45.231Z,20.90
2019-02-02T05:06:14.733Z,16.30
2019-02-02T05:08:43.994Z,23.17
2019-02-02T05:11:13.326Z,26.70
2019-02-02T05:13:51.862Z,25.13
2019-02-02T05:16:27.953Z,27.87
2019-02-02T05:19:03.314Z,20.90
2019-02-02T05:21:37.253Z,18.90
2019-02-02T05:24:22.133Z,19.20
2019-02-02T05:26:54.455Z,13.17
2019-02-02T05:29:23.963Z,19.40
2019-02-02T05:31:53.266Z,19.63
2019-02-02T05:34:22.815Z,18.17
2019-02-02T05:36:52.206Z,20.37
2019-02-02T05:39:24.870Z,26.60
2019-02-02T05:41:55.233Z,11.30
2019-02-02T05:44:32.864Z,9.60
2019-02-02T05:47:09.286Z,10.43
2019-02-02T05:49:43.436Z,12.23
2019-02-02T05:52:17.754Z,13.30
2019-02-02T05:54:49.030Z,13.43
2019-02-02T05:57:21.220Z,14.80
2019-02-02T05:59:53.002Z,15.30
2019-02-02T06:02:23.387Z,20.03
2019-02-02T06:04:53.291Z,23.20
2019-02-02T06:07:23.248Z,26.80
2019-02-02T06:09:53.069Z,26.43
2019-02-02T06:12:35.546Z,26.57
2019-02-02T06:15:05.923Z,30.27
2019-02-02T06:17:36.280Z,20.67
2019-02-02T06:20:07.842Z,22.13
2019-02-02T06:22:38.318Z,24.30
2019-02-02T06:25:10.568Z,25.07
2019-02-02T06:27:41.468Z,24.03
2019-02-02T06:30:17.775Z,24.90
2019-02-02T06:32:48.569Z,24.60
2019-02-02T06:35:20.122Z,25.83
2019-02-02T06:37:50.345Z,18.80
2019-02-02T06:40:21.259Z,17.07
2019-02-02T06:42:52.039Z,20.57
2019-02-02T06:45:27.724Z,20.40
2019-02-02T06:47:57.951Z,15.30
2019-02-02T06:50:31.718Z,17.80
2019-02-02T06:53:02.786Z,16.43
2019-02-02T06:55:34.765Z,16.30
2019-02-02T06:58:06.082Z,19.03
2019-02-02T07:00:36.256Z,19.30
2019-02-02T07:03:06.521Z,16.97
2019-02-02T07:05:39.049Z,16.80
2019-02-02T07:08:09.884Z,14.90
2019-02-02T07:10:40.141Z,18.10
2019-02-02T07:13:12.288Z,20.20
2019-02-02T07:15:45.576Z,17.50
2019-02-02T07:18:17.914Z,20.70
2019-02-02T07:20:49.127Z,18.17
2019-02-02T07:23:20.440Z,18.70
2019-02-02T07:25:51.994Z,19.83
2019-02-02T07:28:22.272Z,19.17
2019-02-02T07:30:53.781Z,16.53
2019-02-02T07:33:24.660Z,12.17
2019-02-02T07:35:57.265Z,15.13
2019-02-02T07:38:27.459Z,16.20
2019-02-02T07:40:57.916Z,18.23
2019-02-02T07:43:28.467Z,17.20
2019-02-02T07:46:00.288Z,19.37
2019-02-02T07:48:30.826Z,23.07
2019-02-02T07:51:02.070Z,16.60
2019-02-02T07:53:36.270Z,18.47
2019-02-02T07:56:10.255Z,14.10
2019-02-02T07:58:43.653Z,14.07
2019-02-02T08:01:17.402Z,13.20
2019-02-02T08:03:54.924Z,13.87
2019-02-02T08:06:26.780Z,12.20
2019-02-02T08:08:58.906Z,15.83
2019-02-02T08:11:31.263Z,17.43
2019-02-02T08:14:02.059Z,18.70
2019-02-02T08:16:41.728Z,16.60
2019-02-02T08:19:14.825Z,21.00
2019-02-02T08:21:46.410Z,16.40
2019-02-02T08:24:20.629Z,16.20
2019-02-02T08:26:51.803Z,16.00
2019-02-02T08:29:25.268Z,15.90
2019-02-02T08:31:58.404Z,16.13
2019-02-02T08:34:30.498Z,16.87
2019-02-02T08:37:00.703Z,17.20
2019-02-02T08:39:33.506Z,15.10
2019-02-02T08:42:10.509Z,12.70
2019-02-02T08:44:40.148Z,15.23
2019-02-02T08:47:10.251Z,17.60
2019-02-02T08:49:40.377Z,14.90
2019-02-02T08:52:09.887Z,18.70
2019-02-02T08:54:39.200Z,17.27
2019-02-02T08:57:08.473Z,17.13
2019-02-02T08:59:37.806Z,19.10
2019-02-02T09:02:07.237Z,18.07
2019-02-02T09:04:36.660Z,27.90
2019-02-02T09:07:06.809Z,24.47
2019-02-02T09:09:40.326Z,22.50
2019-02-02T09:12:09.790Z,20.77
2019-02-02T09:14:39.116Z,18.93
2019-02-02T09:17:08.461Z,17.90
2019-02-02T09:19:37.765Z,16.37
2019-02-02T09:22:07.043Z,22.00
2019-02-02T09:24:36.294Z,22.47
2019-02-02T09:27:05.602Z,19.10
2019-02-02T09:29:34.924Z,18.40
2019-02-02T09:32:04.388Z,19.40
2019-02-02T09:34:33.645Z,18.80
2019-02-02T09:37:02.889Z,19.90
2019-02-02T09:39:32.120Z,19.37
2019-02-02T09:42:01.439Z,20.17
2019-02-02T09:44:30.639Z,16.97
2019-02-02T09:46:59.917Z,17.20
2019-02-02T09:49:29.139Z,16.07
2019-02-02T09:51:58.401Z,16.80
2019-02-02T09:54:27.651Z,16.67
2019-02-02T09:56:56.842Z,18.50
2019-02-02T09:59:26.094Z,19.50
2019-02-02T10:01:55.346Z,18.77
2019-02-02T10:04:24.534Z,16.77
2019-02-02T10:06:53.786Z,16.00
2019-02-02T10:09:23.061Z,17.37
2019-02-02T10:11:52.366Z,14.70
2019-02-02T10:14:21.708Z,14.70
2019-02-02T10:16:51.039Z,15.23
2019-02-02T10:19:20.424Z,16.37
2019-02-02T10:21:49.932Z,16.40
2019-02-02T10:24:19.217Z,15.60
2019-02-02T10:26:48.549Z,14.47
2019-02-02T10:29:17.807Z,13.97
2019-02-02T10:31:47.154Z,12.43
2019-02-02T10:34:16.466Z,13.33
2019-02-02T10:36:45.712Z,10.97
2019-02-02T10:39:15.136Z,13.40
2019-02-02T10:41:44.415Z,10.90
2019-02-02T10:44:13.623Z,13.00
2019-02-02T10:46:42.903Z,11.03
2019-02-02T10:49:12.207Z,11.67
2019-02-02T10:51:41.482Z,12.30
2019-02-02T10:54:10.715Z,11.80
2019-02-02T10:56:41.288Z,12.47
2019-02-02T10:59:10.673Z,13.50
2019-02-02T11:01:50.511Z,13.63
2019-02-02T11:04:11.057Z,13.00
2019-02-02T11:06:40.503Z,14.10
2019-02-02T11:09:10.608Z,12.60
2019-02-02T11:11:40.266Z,13.70
2019-02-02T11:14:09.912Z,13.57
2019-02-02T11:16:39.396Z,14.70
2019-02-02T11:19:08.772Z,14.50
2019-02-02T11:21:38.229Z,16.90
2019-02-02T11:24:07.506Z,16.47
2019-02-02T11:26:36.902Z,16.13
2019-02-02T11:29:06.151Z,16.43
2019-02-02T11:31:35.479Z,18.50
2019-02-02T11:34:04.817Z,20.00
2019-02-02T11:36:34.047Z,18.10
2019-02-02T11:39:04.689Z,19.10
2019-02-02T11:41:33.976Z,18.90
2019-02-02T11:44:03.234Z,17.03
2019-02-02T11:46:32.501Z,16.30
2019-02-02T11:49:01.777Z,14.70
2019-02-02T11:51:31.083Z,20.07
2019-02-02T11:54:00.333Z,19.17
2019-02-02T11:56:29.583Z,17.57
2019-02-02T11:58:58.821Z,17.30
2019-02-02T12:01:28.090Z,18.43
2019-02-02T12:03:57.329Z,20.60
2019-02-02T12:06:26.621Z,16.47
2019-02-02T12:08:55.878Z,17.53
2019-02-02T12:11:25.144Z,19.20
2019-02-02T12:13:56.497Z,16.63
2019-02-02T12:16:25.669Z,16.30
2019-02-02T12:18:54.933Z,18.23
2019-02-02T12:21:24.207Z,18.40
2019-02-02T12:23:53.530Z,18.10
2019-02-02T12:26:22.848Z,16.27
2019-02-02T12:28:52.271Z,18.63
2019-02-02T12:31:21.486Z,17.73
2019-02-02T12:33:50.708Z,15.80
2019-02-02T12:36:19.975Z,14.83
2019-02-02T12:38:49.156Z,16.37
2019-02-02T12:41:18.444Z,17.27
2019-02-02T12:43:47.601Z,17.10
2019-02-02T12:46:16.885Z,14.37
2019-02-02T12:48:46.076Z,16.60
2019-02-02T12:51:15.213Z,17.40
2019-02-02T12:53:44.492Z,17.57
2019-02-02T12:56:13.640Z,15.90
2019-02-02T12:58:42.860Z,16.97
2019-02-02T13:01:13.926Z,19.00
2019-02-02T13:03:43.067Z,19.20
2019-02-02T13:06:12.334Z,16.70
2019-02-02T13:08:41.876Z,16.20
2019-02-02T13:11:11.153Z,18.13
2019-02-02T13:13:42.600Z,18.07
2019-02-02T13:16:11.426Z,16.97
2019-02-02T13:18:40.665Z,17.63
2019-02-02T13:21:13.961Z,17.77
2019-02-02T13:23:43.209Z,17.00
2019-02-02T13:26:12.457Z,21.50
2019-02-02T13:28:41.733Z,20.60
2019-02-02T13:31:10.972Z,17.30
2019-02-02T13:33:40.149Z,19.17
2019-02-02T13:36:09.382Z,20.23
2019-02-02T13:38:39.706Z,19.50
2019-02-02T13:41:08.955Z,20.77
2019-02-02T13:43:38.204Z,17.40
2019-02-02T13:46:07.354Z,29.33
2019-02-02T13:48:36.602Z,22.63
2019-02-02T13:51:06.265Z,19.37
2019-02-02T13:53:35.561Z,18.70
2019-02-02T13:56:04.803Z,18.03
2019-02-02T13:58:34.050Z,18.80
2019-02-02T14:01:03.270Z,15.30
2019-02-02T14:03:32.729Z,11.70
2019-02-02T14:06:01.956Z,11.60
2019-02-02T14:08:31.116Z,12.63
2019-02-02T14:11:00.367Z,12.60
2019-02-02T14:13:29.537Z,16.03
2019-02-02T14:15:58.753Z,15.27
2019-02-02T14:18:27.978Z,28.40
2019-02-02T14:20:57.133Z,20.83
2019-02-02T14:23:26.352Z,16.37
2019-02-02T14:25:55.531Z,12.27
2019-02-02T14:28:28.400Z,13.73
2019-02-02T14:30:55.665Z,14.37
2019-02-02T14:33:24.928Z,12.10
2019-02-02T14:35:54.104Z,15.10
2019-02-02T14:38:23.373Z,16.20
2019-02-02T14:40:52.545Z,11.80
2019-02-02T14:43:21.804Z,13.00
2019-02-02T14:45:50.965Z,14.10
2019-02-02T14:48:20.218Z,15.00
2019-02-02T14:50:49.464Z,16.00
2019-02-02T14:53:18.645Z,13.07
2019-02-02T14:55:47.817Z,13.50
2019-02-02T14:58:17.101Z,12.80
2019-02-02T15:00:46.342Z,13.10
2019-02-02T15:03:25.524Z,13.53
2019-02-02T15:05:47.697Z,12.50
2019-02-02T15:08:16.954Z,12.60
2019-02-02T15:10:46.209Z,11.80
2019-02-02T15:13:15.454Z,13.63
2019-02-02T15:15:44.705Z,13.87
2019-02-02T15:18:13.965Z,12.93
2019-02-02T15:20:44.061Z,14.47
2019-02-02T15:23:13.280Z,14.13
2019-02-02T15:25:43.046Z,15.67
2019-02-02T15:28:12.332Z,14.83
2019-02-02T15:30:41.521Z,14.80
2019-02-02T15:33:10.748Z,16.27
2019-02-02T15:35:39.999Z,14.73
2019-02-02T15:38:09.267Z,15.73
2019-02-02T15:40:38.426Z,16.37
2019-02-02T15:43:07.737Z,15.50
2019-02-02T15:45:37.059Z,16.43
2019-02-02T15:48:06.230Z,14.97
2019-02-02T15:50:35.417Z,15.40
2019-02-02T15:53:04.749Z,16.07
2019-02-02T15:55:33.942Z,13.90
2019-02-02T15:58:03.220Z,16.70
2019-02-02T16:00:34.185Z,16.10
2019-02-02T16:03:03.490Z,16.67
2019-02-02T16:05:33.018Z,15.33
2019-02-02T16:08:06.619Z,13.80
2019-02-02T16:10:36.116Z,14.10
2019-02-02T16:13:05.422Z,14.37
2019-02-02T16:15:34.821Z,14.03
2019-02-02T16:18:04.833Z,16.23
2019-02-02T16:20:36.478Z,16.00
2019-02-02T16:23:06.290Z,17.50
2019-02-02T16:25:35.600Z,19.60
2019-02-02T16:28:05.036Z,18.90
2019-02-02T16:30:34.373Z,18.80
2019-02-02T16:33:03.569Z,25.60
2019-02-02T16:35:33.158Z,22.63
2019-02-02T16:38:02.491Z,20.87
2019-02-02T16:40:31.845Z,21.60
2019-02-02T16:43:01.346Z,23.50
2019-02-02T16:45:31.326Z,23.27
2019-02-02T16:48:00.948Z,21.50
2019-02-02T16:50:30.437Z,20.73
2019-02-02T16:52:59.707Z,18.97
2019-02-02T16:55:28.984Z,19.40
2019-02-02T16:57:58.207Z,17.07
2019-02-02T17:00:32.243Z,17.13
2019-02-02T17:03:01.445Z,18.20
2019-02-02T17:05:30.723Z,20.20
2019-02-02T17:08:00.053Z,21.40
2019-02-02T17:10:34.391Z,26.23
2019-02-02T17:13:04.150Z,27.40
2019-02-02T17:15:33.411Z,23.57
2019-02-02T17:18:02.624Z,24.73
2019-02-02T17:20:38.901Z,24.97
2019-02-02T17:23:08.260Z,26.60
2019-02-02T17:25:37.740Z,21.37
2019-02-02T17:28:07.671Z,19.10
2019-02-02T17:30:37.096Z,16.30
2019-02-02T17:33:11.833Z,15.60
2019-02-02T17:35:41.017Z,13.07
2019-02-02T17:38:10.348Z,15.57
2019-02-02T17:40:39.662Z,12.60
2019-02-02T17:43:08.830Z,13.97
2019-02-02T17:45:38.032Z,10.93
2019-02-02T17:48:08.121Z,13.50
2019-02-02T17:50:37.465Z,14.30
2019-02-02T17:53:09.460Z,18.80
2019-02-02T17:55:38.672Z,20.90
2019-02-02T17:58:07.840Z,22.20
2019-02-02T18:00:54.368Z,17.93
2019-02-02T18:03:23.638Z,19.10
2019-02-02T18:05:52.949Z,15.93
2019-02-02T18:08:22.236Z,16.30
2019-02-02T18:10:51.833Z,18.13
2019-02-02T18:13:30.207Z,23.77
2019-02-02T18:15:59.791Z,20.90
2019-02-02T18:18:29.263Z,20.17
2019-02-02T18:20:58.885Z,18.37
2019-02-02T18:23:28.460Z,18.00
2019-02-02T18:25:58.084Z,20.83
2019-02-02T18:28:27.711Z,20.13
2019-02-02T18:30:57.344Z,18.83
2019-02-02T18:33:26.797Z,18.13
2019-02-02T18:35:56.208Z,18.87
2019-02-02T18:38:25.730Z,23.60
2019-02-02T18:40:55.173Z,26.10
2019-02-02T18:43:24.742Z,24.33
2019-02-02T18:45:54.315Z,22.07
2019-02-02T18:48:23.810Z,23.10
2019-02-02T18:50:53.222Z,23.50
2019-02-02T18:53:22.684Z,25.17
2019-02-02T18:55:59.033Z,22.77
2019-02-02T18:58:28.295Z,21.80
2019-02-02T19:00:57.585Z,22.77
2019-02-02T19:03:26.829Z,20.87
2019-02-02T19:05:56.134Z,19.80
2019-02-02T19:08:25.360Z,21.70
2019-02-02T19:10:54.686Z,20.20
2019-02-02T19:13:23.965Z,22.70
2019-02-02T19:15:53.228Z,23.27
2019-02-02T19:18:22.502Z,21.93
2019-02-02T19:20:51.762Z,22.10
2019-02-02T19:23:25.402Z,20.93
2019-02-02T19:25:52.059Z,21.13
2019-02-02T19:28:21.352Z,20.87
2019-02-02T19:30:53.454Z,20.93
2019-02-02T19:33:21.616Z,20.77
2019-02-02T19:35:50.864Z,18.93
2019-02-02T19:38:20.642Z,20.30
2019-02-02T19:40:49.905Z,20.27
2019-02-02T19:43:19.393Z,18.40
2019-02-02T19:45:48.715Z,18.17
2019-02-02T19:48:17.984Z,21.83
2019-02-02T19:50:47.411Z,22.00
2019-02-02T19:53:16.803Z,24.03
2019-02-02T19:55:46.168Z,22.63
2019-02-02T19:58:15.460Z,28.20
2019-02-02T20:00:45.028Z,26.07
2019-02-02T20:03:14.320Z,23.30
2019-02-02T20:05:43.563Z,23.77
2019-02-02T20:08:12.857Z,21.60
2019-02-02T20:10:42.105Z,21.43
2019-02-02T20:13:11.516Z,23.20
2019-02-02T20:15:40.887Z,22.87
2019-02-02T20:18:10.729Z,24.63
2019-02-02T20:20:40.037Z,21.30
2019-02-02T20:23:09.314Z,21.70
2019-02-02T20:25:38.486Z,20.40
2019-02-02T20:28:07.679Z,22.07
2019-02-02T20:30:36.925Z,22.97
2019-02-02T20:33:06.287Z,22.40
2019-02-02T20:35:42.110Z,23.77
2019-02-02T20:38:06.546Z,27.77
2019-02-02T20:40:35.798Z,30.73
2019-02-02T20:43:05.384Z,27.43
2019-02-02T20:45:35.685Z,22.07
2019-02-02T20:48:05.160Z,28.60
2019-02-02T20:50:34.406Z,20.80
2019-02-02T20:53:03.696Z,23.97
2019-02-02T20:55:35.941Z,28.03
2019-02-02T20:58:06.012Z,24.43
2019-02-02T21:00:35.345Z,22.97
2019-02-02T21:03:04.714Z,21.67
2019-02-02T21:05:33.870Z,23.50
2019-02-02T21:08:03.510Z,21.90
2019-02-02T21:10:32.752Z,24.30
2019-02-02T21:13:02.030Z,24.30
2019-02-02T21:15:31.222Z,25.73
2019-02-02T21:18:00.485Z,22.67
2019-02-02T21:20:29.894Z,22.40
2019-02-02T21:22:59.186Z,22.67
2019-02-02T21:25:28.341Z,24.30
2019-02-02T21:27:57.636Z,24.90
2019-02-02T21:30:28.907Z,28.27
2019-02-02T21:32:58.240Z,30.47
2019-02-02T21:35:27.508Z,26.87
2019-02-02T21:37:56.874Z,32.90
2019-02-02T21:40:30.734Z,27.73
2019-02-02T21:43:00.126Z,23.77
2019-02-02T21:45:29.387Z,24.47
2019-02-02T21:47:58.664Z,26.47
2019-02-02T21:50:27.952Z,22.47
2019-02-02T21:52:57.253Z,29.10
2019-02-02T21:55:27.604Z,29.70
2019-02-02T21:57:56.998Z,23.57
2019-02-02T22:00:31.816Z,22.43
2019-02-02T22:03:01.092Z,25.47
2019-02-02T22:05:30.332Z,25.10
2019-02-02T22:07:59.634Z,25.90
2019-02-02T22:10:28.813Z,27.20
2019-02-02T22:12:58.310Z,24.23
2019-02-02T22:15:27.694Z,24.83
2019-02-02T22:17:56.949Z,23.40
2019-02-02T22:20:26.126Z,23.10
2019-02-02T22:22:55.404Z,24.30
2019-02-02T22:25:27.020Z,22.00
2019-02-02T22:27:56.318Z,25.13
2019-02-02T22:30:27.583Z,24.60
2019-02-02T22:32:56.770Z,26.77
2019-02-02T22:35:25.954Z,26.73
2019-02-02T22:37:55.836Z,29.37
2019-02-02T22:40:25.797Z,27.90
2019-02-02T22:42:55.075Z,30.23
2019-02-02T22:45:24.554Z,28.23
2019-02-02T22:47:53.864Z,26.60
2019-02-02T22:50:24.622Z,27.03
2019-02-02T22:52:54.133Z,23.53
2019-02-02T22:55:23.474Z,22.90
2019-02-02T22:57:53.273Z,23.10
2019-02-02T23:01:24.884Z,21.73
2019-02-02T23:04:34.638Z,24.30
2019-02-02T23:07:32.149Z,23.97
2019-02-02T23:10:46.891Z,23.60
2019-02-02T23:13:47.643Z,24.83
2019-02-02T23:16:35.061Z,24.07
2019-02-02T23:19:07.159Z,27.97
2019-02-02T23:21:38.784Z,25.87
2019-02-02T23:24:11.271Z,24.80
2019-02-02T23:26:43.503Z,26.77
2019-02-02T23:29:14.640Z,30.43
2019-02-02T23:31:48.067Z,28.50
2019-02-02T23:34:23.688Z,30.13
2019-02-02T23:36:55.949Z,27.80
2019-02-02T23:39:28.561Z,30.43
2019-02-02T23:42:12.766Z,29.93
2019-02-02T23:44:47.389Z,29.07
2019-02-02T23:47:20.254Z,31.33
2019-02-02T23:49:50.880Z,31.60
2019-02-02T23:52:23.254Z,30.33
2019-02-02T23:54:56.270Z,30.70
2019-02-02T23:57:28.494Z,29.90
